createdAt,value
2023-04-17T00:00:00.241Z,11.97
2023-04-17T00:01:37.341Z,11.99
2023-04-17T00:03:13.765Z,12.03
2023-04-17T00:04:46.988Z,12.02
2023-04-17T00:06:22.360Z,12.03
2023-04-17T00:07:57.615Z,12.05
2023-04-17T00:09:38.916Z,12.03
2023-04-17T00:11:26.618Z,12.02
2023-04-17T00:13:16.339Z,12.02
2023-04-17T00:14:49.224Z,12.02
2023-04-17T00:16:28.035Z,12.01
2023-04-17T00:18:00.456Z,12.02
2023-04-17T00:19:47.669Z,12.00
2023-04-17T00:21:32.864Z,11.99
2023-04-17T00:23:07.614Z,11.98
2023-04-17T00:24:42.454Z,11.98
2023-04-17T00:28:03.511Z,11.96
2023-04-17T00:29:46.330Z,11.99
2023-04-17T00:31:19.003Z,11.99
2023-04-17T00:32:54.111Z,11.99
2023-04-17T00:34:35.857Z,11.97
2023-04-17T00:36:10.913Z,11.99
2023-04-17T00:37:53.114Z,11.99
2023-04-17T00:39:27.368Z,11.97
2023-04-17T00:41:05.740Z,11.98
2023-04-17T00:42:39.038Z,11.96
2023-04-17T00:44:10.650Z,11.91
2023-04-17T00:46:10.593Z,11.85
2023-04-17T00:47:47.924Z,11.83
2023-04-17T00:49:24.854Z,11.82
2023-04-17T00:51:20.299Z,11.83
2023-04-17T00:52:52.157Z,11.79
2023-04-17T00:54:25.575Z,11.73
2023-04-17T00:55:57.633Z,11.69
2023-04-17T00:57:29.639Z,11.68
2023-04-17T00:59:01.575Z,11.64
2023-04-17T01:00:33.316Z,11.64
2023-04-17T01:02:04.961Z,11.64
2023-04-17T01:03:38.907Z,11.63
2023-04-17T01:05:10.931Z,11.61
2023-04-17T01:06:42.986Z,11.59
2023-04-17T01:08:14.616Z,11.58
2023-04-17T01:09:46.252Z,11.56
2023-04-17T01:11:20.395Z,11.52
2023-04-17T01:13:01.734Z,11.52
2023-04-17T01:14:33.345Z,11.53
2023-04-17T01:16:04.975Z,11.51
2023-04-17T01:17:36.669Z,11.44
2023-04-17T01:19:08.581Z,11.44
2023-04-17T01:20:40.245Z,11.45
2023-04-17T01:22:11.882Z,11.45
2023-04-17T01:23:47.227Z,11.42
2023-04-17T01:25:19.375Z,11.39
2023-04-17T01:26:51.452Z,11.42
2023-04-17T01:28:25.521Z,11.41
2023-04-17T01:29:57.178Z,11.43
2023-04-17T01:31:29.727Z,11.43
2023-04-17T01:33:01.887Z,11.39
2023-04-17T01:34:35.054Z,11.39
2023-04-17T01:36:08.669Z,11.40
2023-04-17T01:37:40.448Z,11.38
2023-04-17T01:39:12.584Z,11.42
2023-04-17T01:40:45.635Z,11.41
2023-04-17T01:42:17.236Z,11.41
2023-04-17T01:43:48.827Z,11.41
2023-04-17T01:45:21.700Z,11.43
2023-04-17T01:46:55.262Z,11.43
2023-04-17T01:48:28.257Z,11.42
2023-04-17T01:49:59.958Z,11.44
2023-04-17T01:51:31.725Z,11.41
2023-04-17T01:53:03.509Z,11.38
2023-04-17T01:54:35.263Z,11.36
2023-04-17T01:56:07.178Z,11.35
2023-04-17T01:57:38.847Z,11.35
2023-04-17T01:59:11.147Z,11.35
2023-04-17T02:00:47.863Z,11.38
2023-04-17T02:02:19.799Z,11.45
2023-04-17T02:03:52.518Z,11.51
2023-04-17T02:05:24.382Z,11.53
2023-04-17T02:06:56.338Z,11.57
2023-04-17T02:08:28.097Z,11.62
2023-04-17T02:09:59.654Z,11.65
2023-04-17T02:11:31.342Z,11.65
2023-04-17T02:13:02.869Z,11.67
2023-04-17T02:14:37.047Z,11.71
2023-04-17T02:16:09.834Z,11.74
2023-04-17T02:17:41.632Z,11.74
2023-04-17T02:19:13.704Z,11.78
2023-04-17T02:20:45.593Z,11.78
2023-04-17T02:22:18.573Z,11.71
2023-04-17T02:23:50.260Z,11.67
2023-04-17T02:25:21.889Z,11.63
2023-04-17T02:26:53.544Z,11.67
2023-04-17T02:28:25.521Z,11.70
2023-04-17T02:29:57.260Z,11.70
2023-04-17T02:31:29.265Z,11.72
2023-04-17T02:33:01.321Z,11.73
2023-04-17T02:34:33.120Z,11.72
2023-04-17T02:36:07.774Z,11.73
2023-04-17T02:37:41.922Z,11.78
2023-04-17T02:39:16.770Z,11.80
2023-04-17T02:40:48.523Z,11.81
2023-04-17T02:42:20.697Z,11.83
2023-04-17T02:43:52.528Z,11.79
2023-04-17T02:45:27.704Z,11.79
2023-04-17T02:46:59.604Z,11.82
2023-04-17T02:48:31.394Z,11.81
2023-04-17T02:50:08.355Z,11.81
2023-04-17T02:51:40.212Z,11.81
2023-04-17T02:53:14.384Z,11.79
2023-04-17T02:54:46.277Z,11.78
2023-04-17T02:56:17.992Z,11.71
2023-04-17T02:57:52.217Z,11.69
2023-04-17T02:59:24.076Z,11.66
2023-04-17T03:01:02.344Z,11.62
2023-04-17T03:02:34.568Z,11.52
2023-04-17T03:04:28.132Z,11.46
2023-04-17T03:05:59.696Z,11.43
2023-04-17T03:07:31.226Z,11.41
2023-04-17T03:09:03.175Z,11.41
2023-04-17T03:10:35.822Z,11.42
2023-04-17T03:12:07.618Z,11.43
2023-04-17T03:13:39.421Z,11.47
2023-04-17T03:15:11.231Z,11.52
2023-04-17T03:16:42.882Z,11.51
2023-04-17T03:18:14.501Z,11.51
2023-04-17T03:19:46.147Z,11.52
2023-04-17T03:21:17.997Z,11.55
2023-04-17T03:22:49.673Z,11.56
2023-04-17T03:24:21.346Z,11.55
2023-04-17T03:25:53.112Z,11.55
2023-04-17T03:27:25.420Z,11.58
2023-04-17T03:29:07.158Z,11.59
2023-04-17T03:32:25.512Z,11.59
2023-04-17T03:33:32.121Z,11.50
2023-04-17T03:35:04.156Z,11.49
2023-04-17T03:36:36.467Z,11.50
2023-04-17T03:38:08.147Z,11.48
2023-04-17T03:39:39.764Z,11.51
2023-04-17T03:41:11.511Z,11.55
2023-04-17T03:42:43.497Z,11.51
2023-04-17T03:44:19.185Z,11.48
2023-04-17T03:45:50.829Z,11.46
2023-04-17T03:47:22.730Z,11.46
2023-04-17T03:48:54.380Z,11.46
2023-04-17T03:50:26.112Z,11.47
2023-04-17T03:51:57.678Z,11.46
2023-04-17T03:53:32.174Z,11.40
2023-04-17T03:55:04.216Z,11.38
2023-04-17T03:56:36.261Z,11.37
2023-04-17T03:58:08.079Z,11.39
2023-04-17T03:59:39.861Z,11.45
2023-04-17T04:01:14.939Z,11.50
2023-04-17T04:02:46.999Z,11.57
2023-04-17T04:04:19.047Z,11.65
2023-04-17T04:05:50.970Z,11.68
2023-04-17T04:07:22.510Z,11.69
2023-04-17T04:08:54.113Z,11.75
2023-04-17T04:10:26.017Z,11.76
2023-04-17T04:11:58.091Z,11.80
2023-04-17T04:13:29.641Z,11.80
2023-04-17T04:15:01.201Z,11.81
2023-04-17T04:16:33.295Z,11.82
2023-04-17T04:18:05.219Z,11.81
2023-04-17T04:19:37.129Z,11.83
2023-04-17T04:21:08.807Z,11.81
2023-04-17T04:22:41.874Z,11.82
2023-04-17T04:24:14.727Z,11.79
2023-04-17T04:25:49.176Z,11.79
2023-04-17T04:27:24.346Z,11.84
2023-04-17T04:28:56.919Z,11.84
2023-04-17T04:30:30.808Z,11.85
2023-04-17T04:32:02.898Z,11.81
2023-04-17T04:33:36.616Z,11.78
2023-04-17T04:35:10.290Z,11.76
2023-04-17T04:36:50.055Z,11.73
2023-04-17T04:38:22.095Z,11.77
2023-04-17T04:39:54.281Z,11.83
2023-04-17T04:41:27.079Z,11.87
2023-04-17T04:42:59.997Z,11.85
2023-04-17T04:44:32.145Z,11.85
2023-04-17T04:46:04.041Z,11.90
2023-04-17T04:47:36.545Z,11.88
2023-04-17T04:49:08.289Z,11.88
2023-04-17T04:50:39.971Z,11.89
2023-04-17T04:52:12.618Z,11.88
2023-04-17T04:53:44.432Z,11.89
2023-04-17T04:55:16.155Z,11.86
2023-04-17T04:56:47.851Z,11.83
2023-04-17T04:58:19.854Z,11.79
2023-04-17T04:59:52.312Z,11.77
2023-04-17T05:01:24.631Z,11.78
2023-04-17T05:02:59.180Z,11.85
2023-04-17T05:04:31.337Z,11.87
2023-04-17T05:06:05.492Z,11.90
2023-04-17T05:07:37.335Z,11.94
2023-04-17T05:09:09.185Z,12.00
2023-04-17T05:10:41.714Z,12.09
2023-04-17T05:12:13.801Z,12.11
2023-04-17T05:13:47.770Z,12.12
2023-04-17T05:15:20.101Z,12.16
2023-04-17T05:16:53.787Z,12.23
2023-04-17T05:18:25.838Z,12.25
2023-04-17T05:19:59.589Z,12.33
2023-04-17T05:21:33.179Z,12.41
2023-04-17T05:23:04.948Z,12.48
2023-04-17T05:24:37.072Z,12.50
2023-04-17T05:26:09.803Z,12.54
2023-04-17T05:27:41.737Z,12.57
2023-04-17T05:29:13.599Z,12.64
2023-04-17T05:30:45.513Z,12.65
2023-04-17T05:32:19.515Z,12.68
2023-04-17T05:33:53.926Z,12.74
2023-04-17T05:35:25.665Z,12.81
2023-04-17T05:36:57.670Z,12.88
2023-04-17T05:38:37.881Z,12.92
2023-04-17T05:40:10.346Z,12.90
2023-04-17T05:41:47.265Z,12.82
2023-04-17T05:43:21.773Z,12.83
2023-04-17T05:44:54.067Z,12.86
2023-04-17T05:46:25.871Z,12.95
2023-04-17T05:48:01.154Z,13.01
2023-04-17T05:49:33.035Z,13.04
2023-04-17T05:51:07.577Z,13.10
2023-04-17T05:52:39.723Z,13.16
2023-04-17T05:54:11.795Z,13.25
2023-04-17T05:55:43.733Z,13.24
2023-04-17T05:57:15.514Z,13.21
2023-04-17T05:58:48.095Z,13.20
2023-04-17T06:00:22.955Z,13.23
2023-04-17T06:01:54.851Z,13.27
2023-04-17T06:03:27.501Z,13.36
2023-04-17T06:04:59.679Z,13.41
2023-04-17T06:06:32.710Z,13.47
2023-04-17T06:08:04.387Z,13.56
2023-04-17T06:09:37.099Z,13.60
2023-04-17T06:11:15.934Z,13.67
2023-04-17T06:12:49.563Z,13.65
2023-04-17T06:14:21.430Z,13.66
2023-04-17T06:15:53.641Z,13.60
2023-04-17T06:17:26.952Z,13.57
2023-04-17T06:18:58.732Z,13.55
2023-04-17T06:20:30.423Z,13.58
2023-04-17T06:22:04.766Z,13.65
2023-04-17T06:23:36.470Z,13.78
2023-04-17T06:25:08.440Z,13.94
2023-04-17T06:26:40.590Z,14.11
2023-04-17T06:28:13.536Z,14.23
2023-04-17T06:29:45.368Z,14.34
2023-04-17T06:31:17.233Z,14.45
2023-04-17T06:32:48.943Z,14.56
2023-04-17T06:34:21.101Z,14.63
2023-04-17T06:35:52.924Z,14.65
2023-04-17T06:37:24.745Z,14.67
2023-04-17T06:38:56.455Z,14.76
2023-04-17T06:40:30.194Z,14.85
2023-04-17T06:42:02.617Z,14.86
2023-04-17T06:43:34.541Z,14.90
2023-04-17T06:45:07.161Z,15.03
2023-04-17T06:46:38.985Z,15.05
2023-04-17T06:48:14.007Z,15.02
2023-04-17T06:49:48.573Z,14.97
2023-04-17T06:51:21.364Z,14.89
2023-04-17T06:52:59.521Z,14.90
2023-04-17T06:54:31.306Z,14.83
2023-04-17T06:56:03.027Z,14.72
2023-04-17T06:57:37.338Z,14.70
2023-04-17T06:59:12.055Z,14.69
2023-04-17T07:00:44.237Z,14.65
2023-04-17T07:02:23.524Z,14.55
2023-04-17T07:03:55.662Z,14.53
2023-04-17T07:05:27.930Z,14.46
2023-04-17T07:06:59.661Z,14.51
2023-04-17T07:08:31.771Z,14.48
2023-04-17T07:10:04.001Z,14.54
2023-04-17T07:11:41.531Z,14.58
2023-04-17T07:13:17.707Z,14.62
2023-04-17T07:14:52.337Z,14.73
2023-04-17T07:16:34.203Z,14.82
2023-04-17T07:18:08.697Z,14.90
2023-04-17T07:19:42.037Z,14.97
2023-04-17T07:21:14.017Z,14.87
2023-04-17T07:22:47.384Z,14.81
2023-04-17T07:24:19.747Z,14.78
2023-04-17T07:25:55.931Z,14.81
2023-04-17T07:27:27.627Z,14.77
2023-04-17T07:29:02.770Z,14.80
2023-04-17T07:30:34.719Z,14.79
2023-04-17T07:32:09.045Z,14.77
2023-04-17T07:33:43.705Z,14.86
2023-04-17T07:35:19.665Z,14.95
2023-04-17T07:36:56.409Z,15.01
2023-04-17T07:38:30.737Z,14.94
2023-04-17T07:40:07.485Z,14.87
2023-04-17T07:41:46.750Z,14.85
2023-04-17T07:43:18.604Z,14.86
2023-04-17T07:44:50.418Z,14.81
2023-04-17T07:46:28.010Z,14.69
2023-04-17T07:48:00.276Z,14.70
2023-04-17T07:49:34.434Z,14.76
2023-04-17T07:51:08.810Z,14.86
2023-04-17T07:52:40.760Z,14.91
2023-04-17T07:54:12.940Z,14.88
2023-04-17T07:55:47.775Z,14.88
2023-04-17T07:57:19.533Z,14.90
2023-04-17T07:58:52.890Z,14.93
2023-04-17T08:00:25.070Z,14.93
2023-04-17T08:01:57.784Z,14.90
2023-04-17T08:03:31.958Z,14.94
2023-04-17T08:05:07.180Z,14.92
2023-04-17T08:06:46.872Z,14.89
2023-04-17T08:08:20.585Z,14.79
2023-04-17T08:09:56.171Z,14.69
2023-04-17T08:11:28.189Z,14.62
2023-04-17T08:13:00.636Z,14.57
2023-04-17T08:14:35.605Z,14.59
2023-04-17T08:16:07.672Z,14.63
2023-04-17T08:17:42.178Z,14.71
2023-04-17T08:19:14.203Z,14.79
2023-04-17T08:20:51.954Z,14.80
2023-04-17T08:22:31.353Z,14.74
2023-04-17T08:24:05.839Z,14.73
2023-04-17T08:25:41.066Z,14.71
2023-04-17T08:27:15.426Z,14.76
2023-04-17T08:28:47.358Z,14.83
2023-04-17T08:30:20.657Z,14.88
2023-04-17T08:32:06.806Z,14.95
2023-04-17T08:33:45.575Z,14.99
2023-04-17T08:35:19.710Z,15.08
2023-04-17T08:36:51.570Z,15.12
2023-04-17T08:38:31.585Z,15.12
2023-04-17T08:40:18.835Z,15.05
2023-04-17T08:42:00.539Z,15.00
2023-04-17T08:43:38.968Z,15.11
2023-04-17T08:45:18.576Z,15.14
2023-04-17T08:46:53.069Z,15.16
2023-04-17T08:48:47.342Z,15.21
2023-04-17T08:50:19.684Z,15.27
2023-04-17T08:51:58.947Z,15.34
2023-04-17T08:53:31.103Z,15.34
2023-04-17T08:55:06.376Z,15.34
2023-04-17T08:56:58.296Z,15.34
2023-04-17T08:58:41.589Z,15.31
2023-04-17T09:00:20.649Z,15.24
2023-04-17T09:02:10.435Z,15.22
2023-04-17T09:03:45.365Z,15.17
2023-04-17T09:05:21.403Z,15.12
2023-04-17T09:06:54.725Z,15.07
2023-04-17T09:08:29.422Z,15.00
2023-04-17T09:10:14.406Z,14.95
2023-04-17T09:11:48.868Z,14.93
2023-04-17T09:13:28.624Z,14.97
2023-04-17T09:15:00.470Z,15.06
2023-04-17T09:16:32.777Z,15.05
2023-04-17T09:18:07.321Z,15.05
2023-04-17T09:19:41.750Z,15.08
2023-04-17T09:21:16.792Z,15.11
2023-04-17T09:22:48.678Z,15.13
2023-04-17T09:24:34.832Z,15.19
2023-04-17T09:26:15.893Z,15.20
2023-04-17T09:27:47.813Z,15.19
2023-04-17T09:29:19.533Z,15.08
2023-04-17T09:30:51.646Z,15.05
2023-04-17T09:32:28.674Z,15.05
2023-04-17T09:34:03.267Z,14.97
2023-04-17T09:35:39.245Z,14.80
2023-04-17T09:37:11.486Z,14.71
2023-04-17T09:38:46.373Z,14.64
2023-04-17T09:40:23.656Z,14.64
2023-04-17T09:42:06.820Z,14.67
2023-04-17T09:43:43.499Z,14.62
2023-04-17T09:45:25.420Z,14.60
2023-04-17T09:46:57.286Z,14.60
2023-04-17T09:48:29.168Z,14.61
2023-04-17T09:50:01.048Z,14.72
2023-04-17T09:51:36.615Z,14.84
2023-04-17T09:53:08.952Z,14.86
2023-04-17T09:54:41.035Z,14.81
2023-04-17T09:56:13.868Z,14.80
2023-04-17T09:57:45.559Z,14.80
2023-04-17T09:59:17.558Z,14.75
2023-04-17T10:00:50.854Z,14.66
2023-04-17T10:02:23.072Z,14.67
2023-04-17T10:03:57.980Z,14.70
2023-04-17T10:05:32.541Z,14.68
2023-04-17T10:07:04.763Z,14.65
2023-04-17T10:08:38.841Z,14.63
2023-04-17T10:10:11.459Z,14.51
2023-04-17T10:11:44.001Z,14.40
2023-04-17T10:13:15.957Z,14.28
2023-04-17T10:14:49.037Z,14.24
2023-04-17T10:16:21.783Z,14.10
2023-04-17T10:17:58.956Z,14.05
2023-04-17T10:19:39.579Z,13.94
2023-04-17T10:21:22.302Z,13.89
2023-04-17T10:22:54.814Z,13.92
2023-04-17T10:24:27.178Z,14.02
2023-04-17T10:26:18.127Z,14.15
2023-04-17T10:27:50.885Z,14.18
2023-04-17T10:29:42.576Z,14.20
2023-04-17T10:31:14.309Z,14.28
2023-04-17T10:32:46.418Z,14.32
2023-04-17T10:34:36.428Z,14.28
2023-04-17T10:36:08.164Z,14.22
2023-04-17T10:37:48.850Z,14.16
2023-04-17T10:39:20.508Z,14.06
2023-04-17T10:40:52.156Z,14.00
2023-04-17T10:42:24.294Z,13.90
2023-04-17T10:43:56.529Z,13.86
2023-04-17T10:45:48.458Z,13.85
2023-04-17T10:47:20.782Z,13.86
2023-04-17T10:49:43.941Z,13.88
2023-04-17T10:51:21.386Z,13.92
2023-04-17T10:52:59.414Z,13.92
2023-04-17T10:54:43.219Z,13.94
2023-04-17T10:56:18.624Z,14.02
2023-04-17T10:57:55.849Z,14.03
2023-04-17T10:59:30.712Z,14.07
2023-04-17T11:01:03.206Z,14.13
2023-04-17T11:03:14.077Z,14.14
2023-04-17T11:12:29.415Z,13.68
2023-04-17T11:14:02.949Z,13.59
2023-04-17T11:15:35.257Z,13.58
2023-04-17T11:17:07.573Z,13.55
2023-04-17T11:18:39.419Z,13.56
2023-04-17T11:20:22.010Z,13.59
2023-04-17T11:25:15.394Z,13.80
2023-04-17T11:26:47.886Z,13.93
2023-04-17T11:28:19.660Z,14.01
2023-04-17T11:29:56.222Z,14.08
2023-04-17T11:31:29.171Z,14.10
2023-04-17T11:33:18.419Z,14.18
2023-04-17T11:34:50.836Z,14.32
2023-04-17T11:36:58.530Z,14.41
2023-04-17T11:38:31.254Z,14.54
2023-04-17T11:42:14.373Z,14.65
2023-04-17T11:45:41.726Z,14.94
2023-04-17T11:47:16.237Z,15.13
2023-04-17T11:48:59.160Z,15.31
2023-04-17T11:50:42.972Z,15.44
2023-04-17T11:52:18.233Z,15.59
2023-04-17T11:53:52.717Z,15.78
2023-04-17T11:55:35.941Z,15.96
2023-04-17T11:57:16.003Z,16.01
2023-04-17T11:58:55.802Z,15.95
2023-04-17T12:00:33.798Z,15.90
2023-04-17T12:02:07.599Z,15.92
2023-04-17T12:04:22.887Z,15.98
2023-04-17T12:06:36.170Z,16.03
2023-04-17T12:13:23.033Z,16.09
2023-04-17T12:14:54.911Z,16.23
2023-04-17T12:16:35.420Z,16.44
2023-04-17T12:18:10.452Z,16.65
2023-04-17T12:22:05.707Z,17.10
2023-04-17T12:24:36.290Z,17.25
2023-04-17T12:27:57.895Z,17.36
2023-04-17T12:29:43.920Z,17.52
2023-04-17T12:31:18.995Z,17.68
2023-04-17T12:33:16.020Z,17.85
2023-04-17T12:35:03.308Z,18.16
2023-04-17T12:37:08.784Z,18.36
2023-04-17T12:38:55.083Z,18.38
2023-04-17T12:45:19.486Z,18.87
2023-04-17T12:46:58.100Z,18.98
2023-04-17T12:49:01.629Z,19.08
2023-04-17T12:52:09.840Z,19.22
2023-04-17T12:54:00.779Z,19.33
2023-04-17T12:55:44.913Z,19.22
2023-04-17T12:59:30.627Z,18.99
2023-04-17T13:01:42.844Z,19.05
2023-04-17T13:03:37.140Z,19.11
2023-04-17T13:05:10.171Z,19.27
2023-04-17T13:07:14.784Z,19.37
2023-04-17T13:13:13.911Z,19.47
2023-04-17T13:13:37.523Z,19.70
2023-04-17T13:15:22.811Z,19.64
2023-04-17T13:19:50.427Z,19.80
2023-04-17T13:28:07.194Z,20.41
2023-04-17T13:34:58.142Z,20.38
2023-04-17T13:39:35.724Z,20.14
2023-04-17T14:32:04.484Z,17.81
2023-04-17T14:33:53.922Z,17.81
2023-04-17T14:48:01.326Z,16.77
2023-04-17T14:50:13.733Z,16.53
2023-04-17T14:57:34.433Z,15.58
2023-04-17T14:59:26.426Z,15.50
2023-04-17T15:01:11.343Z,15.41
2023-04-17T15:02:57.525Z,15.32
2023-04-17T15:04:54.118Z,15.20
2023-04-17T15:06:30.268Z,15.11
2023-04-17T15:08:04.511Z,15.03
2023-04-17T15:09:59.689Z,14.96
2023-04-17T15:11:59.049Z,14.93
2023-04-17T15:13:51.877Z,14.86
2023-04-17T15:15:32.829Z,14.76
2023-04-17T15:17:07.307Z,14.75
2023-04-17T15:19:27.613Z,14.71
2023-04-17T15:20:42.417Z,14.68
2023-04-17T15:22:17.471Z,14.59
2023-04-17T15:23:58.201Z,14.53
2023-04-17T15:25:39.314Z,14.48
2023-04-17T15:27:28.147Z,14.42
2023-04-17T15:29:08.548Z,14.37
2023-04-17T15:30:46.175Z,14.32
2023-04-17T15:32:32.730Z,14.33
2023-04-17T15:36:08.987Z,14.35
2023-04-17T15:37:49.956Z,14.32
2023-04-17T15:39:34.389Z,14.30
2023-04-17T15:41:27.289Z,14.28
2023-04-17T15:43:13.142Z,14.28
2023-04-17T15:45:01.194Z,14.29
2023-04-17T15:46:40.733Z,14.33
2023-04-17T15:48:13.650Z,14.33
2023-04-17T15:49:54.208Z,14.37
2023-04-17T15:51:28.778Z,14.38
2023-04-17T15:54:53.161Z,14.45
2023-04-17T15:56:25.133Z,14.45
2023-04-17T15:57:56.961Z,14.49
2023-04-17T15:59:35.166Z,14.48
2023-04-17T16:01:15.499Z,14.45
2023-04-17T16:02:48.525Z,14.47
2023-04-17T16:04:21.618Z,14.54
2023-04-17T16:05:55.033Z,14.58
2023-04-17T16:07:27.182Z,14.53
2023-04-17T16:09:19.139Z,14.47
2023-04-17T16:10:51.232Z,14.37
2023-04-17T16:12:24.074Z,14.36
2023-04-17T16:13:56.745Z,14.33
2023-04-17T16:15:29.824Z,14.34
2023-04-17T16:17:01.537Z,14.27
2023-04-17T16:18:33.441Z,14.21
2023-04-17T16:20:06.165Z,14.11
2023-04-17T16:21:38.493Z,14.11
2023-04-17T16:23:12.510Z,14.11
2023-04-17T16:24:45.992Z,14.18
2023-04-17T16:26:18.771Z,14.23
2023-04-17T16:27:50.511Z,14.28
2023-04-17T16:29:22.515Z,14.32
2023-04-17T16:30:54.317Z,14.39
2023-04-17T16:32:29.084Z,14.44
2023-04-17T16:34:03.158Z,14.47
2023-04-17T16:35:37.114Z,14.51
2023-04-17T16:37:09.546Z,14.53
2023-04-17T16:38:41.440Z,14.55
2023-04-17T16:40:13.365Z,14.51
2023-04-17T16:41:45.413Z,14.48
2023-04-17T16:43:19.738Z,14.47
2023-04-17T16:44:53.991Z,14.44
2023-04-17T16:46:35.567Z,14.43
2023-04-17T16:48:27.485Z,14.48
2023-04-17T16:49:59.854Z,14.48
2023-04-17T16:51:36.697Z,14.47
2023-04-17T16:53:15.458Z,14.46
2023-04-17T16:54:48.223Z,14.47
2023-04-17T16:56:22.574Z,14.44
2023-04-17T16:58:07.360Z,14.40
2023-04-17T16:59:39.158Z,14.40
2023-04-17T17:01:14.505Z,14.37
2023-04-17T17:02:47.541Z,14.38
2023-04-17T17:04:19.478Z,14.39
2023-04-17T17:05:54.667Z,14.36
2023-04-17T17:07:26.530Z,14.34
2023-04-17T17:09:02.375Z,14.33
2023-04-17T17:10:34.236Z,14.33
2023-04-17T17:12:06.656Z,14.32
2023-04-17T17:13:43.705Z,14.22
2023-04-17T17:15:15.917Z,14.13
2023-04-17T17:16:47.836Z,14.11
2023-04-17T17:18:29.428Z,14.10
2023-04-17T17:20:03.456Z,14.11
2023-04-17T17:21:39.510Z,14.03
2023-04-17T17:23:12.903Z,13.99
2023-04-17T17:24:46.979Z,14.00
2023-04-17T17:26:18.744Z,14.01
2023-04-17T17:27:50.705Z,14.00
2023-04-17T17:29:22.429Z,13.99
2023-04-17T17:31:01.725Z,13.93
2023-04-17T17:32:33.592Z,13.92
2023-04-17T17:34:22.517Z,13.82
2023-04-17T17:36:00.829Z,13.61
2023-04-17T17:37:41.766Z,13.51
2023-04-17T17:39:14.342Z,13.43
2023-04-17T17:40:50.781Z,13.32
2023-04-17T17:42:22.643Z,13.30
2023-04-17T17:43:56.925Z,13.30
2023-04-17T17:45:28.696Z,13.33
2023-04-17T17:47:03.448Z,13.40
2023-04-17T17:48:40.555Z,13.47
2023-04-17T17:50:12.642Z,13.47
2023-04-17T17:51:52.153Z,13.37
2023-04-17T17:53:27.335Z,13.31
2023-04-17T17:55:01.561Z,13.25
2023-04-17T17:56:52.799Z,13.21
2023-04-17T17:58:28.887Z,13.11
2023-04-17T18:00:02.912Z,13.05
2023-04-17T18:01:34.813Z,12.98
2023-04-17T18:03:08.023Z,12.94
2023-04-17T18:04:40.025Z,12.95
2023-04-17T18:06:15.081Z,12.98
2023-04-17T18:08:04.187Z,13.02
2023-04-17T18:09:35.951Z,13.10
2023-04-17T18:11:07.875Z,13.12
2023-04-17T18:12:39.983Z,13.12
2023-04-17T18:14:12.028Z,13.06
2023-04-17T18:15:48.301Z,13.05
2023-04-17T18:17:20.191Z,13.03
2023-04-17T18:18:52.051Z,12.98
2023-04-17T18:20:26.890Z,12.97
2023-04-17T18:22:02.252Z,12.91
2023-04-17T18:23:36.304Z,12.85
2023-04-17T18:25:13.776Z,12.76
2023-04-17T18:26:45.779Z,12.67
2023-04-17T18:28:24.813Z,12.62
2023-04-17T18:29:56.736Z,12.58
2023-04-17T18:31:28.996Z,12.57
2023-04-17T18:33:06.593Z,12.57
2023-04-17T18:34:38.892Z,12.58
2023-04-17T18:36:29.001Z,12.56
2023-04-17T18:38:01.085Z,12.58
2023-04-17T18:39:38.684Z,12.60
2023-04-17T18:41:10.735Z,12.61
2023-04-17T18:42:48.159Z,12.61
2023-04-17T18:44:20.382Z,12.60
2023-04-17T18:45:58.394Z,12.60
2023-04-17T18:47:30.499Z,12.63
2023-04-17T18:49:15.298Z,12.66
2023-04-17T18:50:49.533Z,12.68
2023-04-17T18:52:21.387Z,12.70
2023-04-17T18:53:53.412Z,12.73
2023-04-17T18:55:37.640Z,12.82
2023-04-17T18:57:09.567Z,12.91
2023-04-17T18:58:42.420Z,12.90
2023-04-17T19:00:24.546Z,12.88
2023-04-17T19:01:59.242Z,12.88
2023-04-17T19:03:31.271Z,12.88
2023-04-17T19:05:04.878Z,12.91
2023-04-17T19:06:42.176Z,12.92
2023-04-17T19:08:15.381Z,12.93
2023-04-17T19:09:51.930Z,12.94
2023-04-17T19:11:33.411Z,12.97
2023-04-17T19:13:10.005Z,13.01
2023-04-17T19:14:46.243Z,13.11
2023-04-17T19:16:22.291Z,13.18
2023-04-17T19:17:57.837Z,13.18
2023-04-17T19:19:31.995Z,13.20
2023-04-17T19:21:03.846Z,13.22
2023-04-17T19:22:39.429Z,13.19
2023-04-17T19:24:17.939Z,13.19
2023-04-17T19:25:58.057Z,13.21
2023-04-17T19:27:37.260Z,13.16
2023-04-17T19:29:09.321Z,13.09
2023-04-17T19:30:46.911Z,13.00
2023-04-17T19:32:23.441Z,12.95
2023-04-17T19:33:57.544Z,12.93
2023-04-17T19:35:43.388Z,12.94
2023-04-17T19:37:15.420Z,12.96
2023-04-17T19:38:47.361Z,12.97
2023-04-17T19:40:24.850Z,12.96
2023-04-17T19:41:57.244Z,12.89
2023-04-17T19:43:33.591Z,12.82
2023-04-17T19:45:08.608Z,12.71
2023-04-17T19:46:42.739Z,12.60
2023-04-17T19:48:17.146Z,12.54
2023-04-17T19:49:49.157Z,12.46
2023-04-17T19:51:28.836Z,12.39
2023-04-17T19:53:09.535Z,12.32
2023-04-17T19:54:45.678Z,12.27
2023-04-17T19:56:22.380Z,12.26
2023-04-17T19:57:58.980Z,12.26
2023-04-17T19:59:31.145Z,12.29
2023-04-17T20:01:04.127Z,12.31
2023-04-17T20:04:26.612Z,12.38
2023-04-17T20:06:01.709Z,12.46
2023-04-17T20:07:36.056Z,12.52
2023-04-17T20:09:13.911Z,12.57
2023-04-17T20:10:46.268Z,12.63
2023-04-17T20:12:20.962Z,12.67
2023-04-17T20:13:52.690Z,12.66
2023-04-17T20:15:26.668Z,12.66
2023-04-17T20:16:58.236Z,12.66
2023-04-17T20:18:30.349Z,12.70
2023-04-17T20:20:02.159Z,12.72
2023-04-17T20:21:33.953Z,12.74
2023-04-17T20:23:07.869Z,12.75
2023-04-17T20:24:39.448Z,12.75
2023-04-17T20:26:11.534Z,12.76
2023-04-17T20:27:46.125Z,12.73
2023-04-17T20:29:17.722Z,12.70
2023-04-17T20:30:49.363Z,12.65
2023-04-17T20:32:21.006Z,12.62
2023-04-17T20:33:52.701Z,12.59
2023-04-17T20:35:24.916Z,12.53
2023-04-17T20:36:57.083Z,12.49
2023-04-17T20:38:30.832Z,12.44
2023-04-17T20:40:02.497Z,12.38
2023-04-17T20:41:34.210Z,12.32
2023-04-17T20:43:05.988Z,12.32
2023-04-17T20:44:37.613Z,12.31
2023-04-17T20:46:09.221Z,12.30
2023-04-17T20:47:55.487Z,12.30
2023-04-17T20:49:28.522Z,12.33
2023-04-17T20:51:05.569Z,12.36
2023-04-17T20:52:37.629Z,12.38
2023-04-17T20:54:09.436Z,12.41
2023-04-17T20:55:41.134Z,12.45
2023-04-17T20:57:12.771Z,12.45
2023-04-17T20:58:44.292Z,12.45
2023-04-17T21:00:17.721Z,12.41
2023-04-17T21:01:51.410Z,12.33
2023-04-17T21:03:23.495Z,12.27
2023-04-17T21:04:55.445Z,12.23
2023-04-17T21:06:27.096Z,12.22
2023-04-17T21:07:58.654Z,12.19
2023-04-17T21:09:30.542Z,12.17
2023-04-17T21:11:02.150Z,12.17
2023-04-17T21:12:35.353Z,12.16
2023-04-17T21:14:08.188Z,12.19
2023-04-17T21:15:39.795Z,12.21
2023-04-17T21:17:11.326Z,12.21
2023-04-17T21:18:42.942Z,12.20
2023-04-17T21:20:14.509Z,12.20
2023-04-17T21:21:46.076Z,12.20
2023-04-17T21:23:17.569Z,12.19
2023-04-17T21:24:49.177Z,12.21
2023-04-17T21:26:21.489Z,12.23
2023-04-17T21:27:53.277Z,12.27
2023-04-17T21:29:25.597Z,12.28
2023-04-17T21:30:57.315Z,12.28
2023-04-17T21:32:28.867Z,12.31
2023-04-17T21:34:00.563Z,12.33
2023-04-17T21:35:32.108Z,12.33
2023-04-17T21:37:05.071Z,12.32
2023-04-17T21:38:36.721Z,12.30
2023-04-17T21:40:08.778Z,12.28
2023-04-17T21:41:40.364Z,12.25
2023-04-17T21:43:11.865Z,12.25
2023-04-17T21:44:43.398Z,12.26
2023-04-17T21:46:14.957Z,12.28
2023-04-17T21:47:46.614Z,12.30
2023-04-17T21:49:18.234Z,12.29
2023-04-17T21:50:50.116Z,12.31
2023-04-17T21:52:21.671Z,12.32
2023-04-17T21:53:53.190Z,12.34
2023-04-17T21:55:24.689Z,12.36
2023-04-17T21:56:56.474Z,12.39
2023-04-17T21:58:28.154Z,12.37
2023-04-17T22:00:00.854Z,12.38
2023-04-17T22:01:34.542Z,12.41
2023-04-17T22:03:06.597Z,12.40
2023-04-17T22:04:38.300Z,12.38
2023-04-17T22:06:10.759Z,12.35
2023-04-17T22:07:53.726Z,12.32
2023-04-17T22:09:28.867Z,12.32
2023-04-17T22:11:01.004Z,12.30
2023-04-17T22:12:32.732Z,12.27
2023-04-17T22:14:04.741Z,12.28
2023-04-17T22:15:39.546Z,12.32
2023-04-17T22:17:11.427Z,12.32
2023-04-17T22:18:45.553Z,12.34
2023-04-17T22:20:19.596Z,12.36
2023-04-17T22:21:51.353Z,12.40
2023-04-17T22:23:27.428Z,12.43
2023-04-17T22:24:59.062Z,12.45
2023-04-17T22:26:31.878Z,12.45
2023-04-17T22:28:04.026Z,12.41
2023-04-17T22:29:35.853Z,12.35
2023-04-17T22:31:10.292Z,12.32
2023-04-17T22:32:42.918Z,12.30
2023-04-17T22:34:15.022Z,12.24
2023-04-17T22:35:46.946Z,12.25
2023-04-17T22:37:23.677Z,12.25
2023-04-17T22:38:58.564Z,12.24
2023-04-17T22:40:35.450Z,12.22